createdAt,value
2017-02-24T00:00:11.714Z,46.1
2017-02-24T00:02:44.203Z,46.1
2017-02-24T00:05:16.686Z,46
2017-02-24T00:07:49.159Z,46
2017-02-24T00:10:21.648Z,46
2017-02-24T00:12:54.546Z,46
2017-02-24T00:15:27.038Z,46
2017-02-24T00:17:59.531Z,46
2017-02-24T00:20:32.025Z,46
2017-02-24T00:23:04.528Z,46
2017-02-24T00:25:37.631Z,46
2017-02-24T00:28:10.129Z,46
2017-02-24T00:30:42.660Z,46
2017-02-24T00:33:15.147Z,46
2017-02-24T00:35:47.631Z,46
2017-02-24T00:38:20.123Z,46
2017-02-24T00:40:52.614Z,46
2017-02-24T00:43:25.093Z,46
2017-02-24T00:45:57.559Z,46
2017-02-24T00:48:30.472Z,46
2017-02-24T00:51:03.574Z,46
2017-02-24T00:53:36.073Z,46
2017-02-24T00:56:08.977Z,46
2017-02-24T00:58:41.447Z,46
2017-02-24T01:01:13.968Z,46
2017-02-24T01:03:46.449Z,46
2017-02-24T01:06:18.938Z,46
2017-02-24T01:08:51.435Z,46
2017-02-24T01:11:23.949Z,46
2017-02-24T01:13:56.434Z,46
2017-02-24T01:16:28.919Z,46
2017-02-24T01:19:01.419Z,46
2017-02-24T01:21:34.334Z,46
2017-02-24T01:24:06.814Z,46
2017-02-24T01:26:39.729Z,46
2017-02-24T01:29:12.220Z,46
2017-02-24T01:31:44.716Z,46
2017-02-24T01:34:17.214Z,46
2017-02-24T01:36:49.692Z,46
2017-02-24T01:39:22.203Z,46
2017-02-24T01:41:54.667Z,46
2017-02-24T01:44:27.570Z,46
2017-02-24T01:47:00.503Z,46
2017-02-24T01:49:33.004Z,46
2017-02-24T01:52:05.505Z,46
2017-02-24T01:54:38.003Z,46
2017-02-24T01:57:10.531Z,46
2017-02-24T01:59:43.010Z,46
2017-02-24T02:02:15.500Z,45.9
2017-02-24T02:04:48.417Z,46
2017-02-24T02:07:20.901Z,46
2017-02-24T02:09:53.377Z,46
2017-02-24T02:12:25.860Z,46
2017-02-24T02:14:58.366Z,46
2017-02-24T02:17:30.835Z,46
2017-02-24T02:20:03.320Z,46
2017-02-24T02:22:35.817Z,46
2017-02-24T02:25:08.371Z,46
2017-02-24T02:27:41.720Z,46
2017-02-24T02:30:14.654Z,46
2017-02-24T02:32:47.138Z,46
2017-02-24T02:35:20.928Z,46
2017-02-24T02:37:53.612Z,46
2017-02-24T02:40:26.116Z,46
2017-02-24T02:42:58.999Z,46
2017-02-24T02:45:31.480Z,46
2017-02-24T02:48:03.971Z,46
2017-02-24T02:50:36.480Z,46
2017-02-24T02:53:08.971Z,46
2017-02-24T02:55:41.471Z,45.9
2017-02-24T02:58:13.971Z,45.9
2017-02-24T03:00:46.903Z,45.9
2017-02-24T03:03:20.631Z,45.9
2017-02-24T03:05:53.544Z,45.9
2017-02-24T03:08:26.024Z,45.9
2017-02-24T03:10:58.542Z,45.9
2017-02-24T03:13:31.450Z,45.9
2017-02-24T03:16:03.920Z,45.9
2017-02-24T03:18:36.833Z,45.9
2017-02-24T03:21:09.320Z,45.8
2017-02-24T03:23:42.654Z,45.8
2017-02-24T03:26:15.131Z,45.8
2017-02-24T03:28:47.635Z,45.8
2017-02-24T03:31:20.560Z,45.8
2017-02-24T03:33:53.048Z,45.8
2017-02-24T03:36:25.527Z,45.8
2017-02-24T03:38:58.017Z,45.8
2017-02-24T03:41:30.520Z,45.8
2017-02-24T03:44:03.014Z,45.7
2017-02-24T03:46:35.498Z,45.7
2017-02-24T03:49:08.409Z,45.7
2017-02-24T03:51:41.330Z,45.7
2017-02-24T03:54:13.828Z,45.7
2017-02-24T03:56:46.326Z,45.7
2017-02-24T03:59:18.861Z,45.7
2017-02-24T04:01:51.369Z,45.7
2017-02-24T04:04:23.870Z,45.6
2017-02-24T04:06:56.678Z,45.6
2017-02-24T04:09:29.590Z,45.6
2017-02-24T04:12:02.494Z,45.6
2017-02-24T04:14:34.990Z,45.6
2017-02-24T04:17:07.473Z,45.6
2017-02-24T04:19:39.961Z,45.6
2017-02-24T04:22:12.438Z,45.5
2017-02-24T04:24:44.950Z,45.5
2017-02-24T04:27:17.439Z,45.5
2017-02-24T04:29:49.928Z,45.5
2017-02-24T04:32:22.700Z,45.5
2017-02-24T04:34:55.298Z,45.5
2017-02-24T04:37:27.804Z,45.5
2017-02-24T04:40:00.293Z,45.5
2017-02-24T04:42:32.784Z,45.5
2017-02-24T04:45:05.281Z,45.5
2017-02-24T04:47:37.772Z,45.5
2017-02-24T04:50:10.457Z,45.5
2017-02-24T04:52:42.937Z,45.5
2017-02-24T04:55:15.411Z,45.5
2017-02-24T04:57:48.312Z,45.4
2017-02-24T05:00:21.210Z,45.5
2017-02-24T05:02:54.150Z,45.5
2017-02-24T05:05:27.079Z,45.5
2017-02-24T05:07:59.589Z,45.5
2017-02-24T05:10:32.094Z,45.5
2017-02-24T05:13:05.014Z,45.4
2017-02-24T05:15:38.404Z,45.4
2017-02-24T05:18:10.875Z,45.4
2017-02-24T05:20:43.383Z,45.4
2017-02-24T05:23:15.910Z,45.4
2017-02-24T05:25:48.828Z,45.4
2017-02-24T05:28:21.297Z,45.4
2017-02-24T05:30:53.792Z,45.4
2017-02-24T05:33:26.688Z,45.4
2017-02-24T05:35:59.185Z,45.4
2017-02-24T05:38:31.643Z,45.4
2017-02-24T05:41:04.130Z,45.4
2017-02-24T05:43:37.026Z,45.4
2017-02-24T05:46:09.940Z,45.8
2017-02-24T05:48:42.429Z,45.7
2017-02-24T05:51:14.937Z,45.8
2017-02-24T05:53:47.442Z,45.7
2017-02-24T05:56:20.381Z,45.7
2017-02-24T05:58:52.872Z,45.9
2017-02-24T06:01:25.801Z,46.1
2017-02-24T06:03:58.285Z,46.3
2017-02-24T06:06:30.781Z,46.4
2017-02-24T06:09:03.279Z,46.2
2017-02-24T06:11:35.814Z,46.1
2017-02-24T06:14:08.278Z,46.2
2017-02-24T06:16:41.190Z,46.2
2017-02-24T06:19:14.594Z,46.4
2017-02-24T06:21:47.510Z,46.2
2017-02-24T06:24:19.991Z,46.2
2017-02-24T06:26:52.498Z,46.2
2017-02-24T06:29:25.400Z,46.3
2017-02-24T06:31:58.315Z,46.3
2017-02-24T06:34:30.787Z,46.2
2017-02-24T06:37:03.309Z,46.4
2017-02-24T06:39:36.218Z,46.4
2017-02-24T06:42:08.723Z,46.3
2017-02-24T06:44:41.645Z,46.3
2017-02-24T06:47:14.126Z,46.3
2017-02-24T06:49:46.666Z,46.2
2017-02-24T06:52:57.423Z,46.2
2017-02-24T06:55:31.397Z,46.2
2017-02-24T06:58:07.455Z,46.2
2017-02-24T07:00:40.613Z,46.2
2017-02-24T07:03:14.292Z,46.3
2017-02-24T07:05:46.853Z,46.4
2017-02-24T07:08:19.360Z,46.3
2017-02-24T07:10:52.293Z,46.2
2017-02-24T07:13:24.815Z,46.4
2017-02-24T07:15:57.300Z,46.4
2017-02-24T07:18:29.825Z,46.4
2017-02-24T07:21:02.734Z,46.4
2017-02-24T07:23:36.178Z,46.3
2017-02-24T07:26:15.192Z,46.3
2017-02-24T07:28:47.769Z,46.3
2017-02-24T07:31:20.266Z,46.3
2017-02-24T07:33:53.003Z,46.4
2017-02-24T07:36:27.079Z,46.4
2017-02-24T07:39:01.623Z,46.5
2017-02-24T07:41:40.482Z,46.6
2017-02-24T07:44:17.093Z,46.6
2017-02-24T07:46:56.382Z,46.6
2017-02-24T07:49:37.685Z,46.6
2017-02-24T07:52:19.955Z,46
2017-02-24T07:54:53.017Z,46.5
2017-02-24T07:57:25.504Z,46.5
2017-02-24T07:59:58.006Z,46.6
2017-02-24T08:02:30.495Z,46.5
2017-02-24T08:05:02.975Z,46.5
2017-02-24T08:07:35.904Z,46.4
2017-02-24T08:10:08.388Z,46.4
2017-02-24T08:12:41.305Z,46.5
2017-02-24T08:15:13.817Z,46.5
2017-02-24T08:17:46.278Z,46.5
2017-02-24T08:20:18.766Z,46.5
2017-02-24T08:22:51.287Z,46.5
2017-02-24T08:25:23.763Z,46.5
2017-02-24T08:27:56.257Z,46.5
2017-02-24T08:30:28.744Z,46.5
2017-02-24T08:33:02.082Z,46.4
2017-02-24T08:35:34.574Z,46.4
2017-02-24T08:38:07.354Z,46.4
2017-02-24T08:40:40.065Z,46.3
2017-02-24T08:43:13.189Z,46.3
2017-02-24T08:45:45.925Z,46.2
2017-02-24T08:48:18.398Z,46.1
2017-02-24T08:50:51.059Z,46.1
2017-02-24T08:53:24.148Z,46.1
2017-02-24T08:55:57.052Z,46.1
2017-02-24T08:58:29.546Z,46.1
2017-02-24T09:01:02.461Z,46
2017-02-24T09:03:35.369Z,46
2017-02-24T09:06:07.857Z,46
2017-02-24T09:08:40.773Z,46
2017-02-24T09:11:13.690Z,46
2017-02-24T09:13:46.149Z,46
2017-02-24T09:16:18.658Z,46
2017-02-24T09:18:51.157Z,46
2017-02-24T09:21:23.647Z,46
2017-02-24T09:23:56.157Z,46.1
2017-02-24T09:26:28.633Z,46.1
2017-02-24T09:29:02.071Z,46.1
2017-02-24T09:31:34.539Z,46.1
2017-02-24T09:34:07.448Z,46.1
2017-02-24T09:36:39.925Z,46.1
2017-02-24T09:39:12.425Z,46.1
2017-02-24T09:41:44.917Z,46.1
2017-02-24T09:44:17.405Z,46.1
2017-02-24T09:46:49.899Z,46.1
2017-02-24T09:49:22.386Z,46.1
2017-02-24T09:51:54.866Z,46.1
2017-02-24T09:54:27.343Z,46.1
2017-02-24T09:56:59.856Z,46.1
2017-02-24T09:59:32.366Z,46
2017-02-24T10:02:04.845Z,46
2017-02-24T10:04:37.342Z,46
2017-02-24T10:07:10.258Z,46
2017-02-24T10:09:42.747Z,46
2017-02-24T10:12:15.669Z,46
2017-02-24T10:14:48.159Z,46
2017-02-24T10:17:21.489Z,46
2017-02-24T10:19:54.414Z,46
2017-02-24T10:22:27.321Z,46
2017-02-24T10:24:59.813Z,46.1
2017-02-24T10:27:32.716Z,46.1
2017-02-24T10:30:05.227Z,46.1
2017-02-24T10:32:38.133Z,46.1
2017-02-24T10:35:10.644Z,46.1
2017-02-24T10:37:43.554Z,46.1
2017-02-24T10:40:16.047Z,46.1
2017-02-24T10:42:48.534Z,46.1
2017-02-24T10:45:21.030Z,46.1
2017-02-24T10:47:53.524Z,46.1
2017-02-24T10:50:26.005Z,46.1
2017-02-24T10:52:58.505Z,46.1
2017-02-24T10:55:31.013Z,46.2
2017-02-24T10:58:03.526Z,46.1
2017-02-24T11:00:36.019Z,46.2
2017-02-24T11:03:08.514Z,46.2
2017-02-24T11:05:41.040Z,46.2
2017-02-24T11:08:13.538Z,46.2
2017-02-24T11:10:46.445Z,46.2
2017-02-24T11:13:19.341Z,46.2
2017-02-24T11:15:51.833Z,46.1
2017-02-24T11:18:24.325Z,46.1
2017-02-24T11:20:56.810Z,46.1
2017-02-24T11:23:29.299Z,46.1
2017-02-24T11:26:01.774Z,46.1
2017-02-24T11:28:35.143Z,46.2
2017-02-24T11:31:07.639Z,46.2
2017-02-24T11:33:40.561Z,46.2
2017-02-24T11:36:13.063Z,46.2
2017-02-24T11:38:45.543Z,46.2
2017-02-24T11:41:18.031Z,46.2
2017-02-24T11:43:50.962Z,46.2
2017-02-24T11:46:23.456Z,46.2
2017-02-24T11:48:55.995Z,46.2
2017-02-24T11:51:28.498Z,46.1
2017-02-24T11:54:01.007Z,46.1
2017-02-24T11:56:33.494Z,46.1
2017-02-24T11:59:06.006Z,46.1
2017-02-24T12:01:38.510Z,46.1
2017-02-24T12:04:11.017Z,46.1
2017-02-24T12:06:43.530Z,46.1
2017-02-24T12:09:16.019Z,46.1
2017-02-24T12:11:48.503Z,46.1
2017-02-24T12:14:21.007Z,46.2
2017-02-24T12:16:53.495Z,46.2
2017-02-24T12:19:25.990Z,46.2
2017-02-24T12:21:59.069Z,46.2
2017-02-24T12:24:32.393Z,46.1
2017-02-24T12:27:04.890Z,46.2
2017-02-24T12:29:37.367Z,46.2
2017-02-24T12:32:10.690Z,46.2
2017-02-24T12:34:43.624Z,46.2
2017-02-24T12:37:16.112Z,46.2
2017-02-24T12:39:49.031Z,46.2
2017-02-24T12:42:21.544Z,46.2
2017-02-24T12:44:54.036Z,46.1
2017-02-24T12:47:26.517Z,45.6
2017-02-24T12:49:59.011Z,41.7
2017-02-24T12:52:31.642Z,41.9
2017-02-24T12:55:04.556Z,39.3
2017-02-24T12:57:37.462Z,39.7
2017-02-24T13:00:10.384Z,41.9
2017-02-24T13:02:43.296Z,42.1
2017-02-24T13:05:15.893Z,41.8
2017-02-24T13:07:48.804Z,41.6
2017-02-24T13:10:21.708Z,39.4
2017-02-24T13:12:54.235Z,38.7
2017-02-24T13:15:26.743Z,39.9
2017-02-24T13:17:59.706Z,39.6
2017-02-24T13:20:32.236Z,40.4
2017-02-24T13:23:04.749Z,40.5
2017-02-24T13:25:37.294Z,39.5
2017-02-24T13:28:09.804Z,38.8
2017-02-24T13:30:42.317Z,39.2
2017-02-24T13:33:15.246Z,39.2
2017-02-24T13:35:47.816Z,38.4
2017-02-24T13:38:20.338Z,38.5
2017-02-24T13:40:53.047Z,38.5
2017-02-24T13:43:25.977Z,38
2017-02-24T13:45:58.941Z,38.4
2017-02-24T13:48:31.435Z,37.8
2017-02-24T13:51:03.964Z,37.4
2017-02-24T13:53:36.510Z,37.6
2017-02-24T13:56:09.459Z,37.2
2017-02-24T13:58:42.397Z,36.4
2017-02-24T14:01:15.307Z,36.2
2017-02-24T14:03:48.253Z,36
2017-02-24T14:06:21.284Z,35.6
2017-02-24T14:08:53.878Z,35.7
2017-02-24T14:11:26.379Z,35.3
2017-02-24T14:13:59.728Z,34.9
2017-02-24T14:16:32.239Z,35.2
2017-02-24T14:19:04.727Z,35
2017-02-24T14:21:37.247Z,32.7
2017-02-24T14:24:09.792Z,33.5
2017-02-24T14:26:42.279Z,33.2
2017-02-24T14:29:15.646Z,32.9
2017-02-24T14:31:48.161Z,33
2017-02-24T14:34:20.687Z,32.4
2017-02-24T14:36:53.186Z,32.6
2017-02-24T14:39:26.604Z,33.3
2017-02-24T14:41:59.102Z,32.6
2017-02-24T14:44:32.041Z,32.4
2017-02-24T14:47:04.531Z,31.4
2017-02-24T14:49:37.031Z,30.4
2017-02-24T14:52:09.623Z,30.1
2017-02-24T14:54:42.159Z,30.4
2017-02-24T14:57:14.655Z,30.2
2017-02-24T14:59:47.158Z,30.1
2017-02-24T15:02:20.122Z,29.9
2017-02-24T15:04:52.619Z,29.7
2017-02-24T15:07:25.113Z,29.8
2017-02-24T15:09:57.666Z,29.4
2017-02-24T15:12:30.571Z,29.7
2017-02-24T15:15:03.496Z,29.4
2017-02-24T15:17:36.023Z,29.5
2017-02-24T15:20:09.490Z,29.7
2017-02-24T15:22:42.181Z,29.3
2017-02-24T15:25:14.735Z,29.4
2017-02-24T15:27:47.232Z,30.1
2017-02-24T15:30:19.719Z,30.1
2017-02-24T15:32:52.223Z,30.2
2017-02-24T15:35:24.744Z,30.2
2017-02-24T15:37:57.230Z,30.1
2017-02-24T15:40:30.151Z,30.4
2017-02-24T15:43:02.673Z,30.8
2017-02-24T15:45:35.173Z,30.7
2017-02-24T15:48:07.704Z,30.7
2017-02-24T15:50:40.238Z,30.8
2017-02-24T15:53:12.734Z,31.2
2017-02-24T15:55:45.208Z,31.2
2017-02-24T15:58:17.705Z,31.4
2017-02-24T16:00:50.276Z,32.2
2017-02-24T16:03:23.188Z,33.5
2017-02-24T16:05:55.678Z,34.4
2017-02-24T16:08:28.571Z,35.4
2017-02-24T16:11:01.503Z,35.8
2017-02-24T16:13:33.992Z,36
2017-02-24T16:16:06.565Z,35.6
2017-02-24T16:18:39.474Z,36.1
2017-02-24T16:21:11.982Z,36.5
2017-02-24T16:23:44.468Z,36.8
2017-02-24T16:26:17.409Z,36.9
2017-02-24T16:28:49.879Z,37.1
2017-02-24T16:31:22.423Z,37.2
2017-02-24T16:33:55.318Z,37.3
2017-02-24T16:36:28.414Z,37.5
2017-02-24T16:39:01.340Z,37.6
2017-02-24T16:41:33.841Z,37.7
2017-02-24T16:44:06.749Z,37.9
2017-02-24T16:46:39.255Z,38
2017-02-24T16:49:11.740Z,38.1
2017-02-24T16:51:44.407Z,38.1
2017-02-24T16:54:16.898Z,38.2
2017-02-24T16:57:04.496Z,38.3
2017-02-24T16:59:37.204Z,38.4
2017-02-24T17:02:09.756Z,38.5
2017-02-24T17:04:43.603Z,38.5
2017-02-24T17:07:16.138Z,38.6
2017-02-24T17:09:48.648Z,39
2017-02-24T17:12:21.142Z,38.9
2017-02-24T17:14:53.640Z,38.9
2017-02-24T17:17:26.617Z,38.9
2017-02-24T17:19:59.124Z,38.9
2017-02-24T17:22:31.716Z,38.9
2017-02-24T17:25:04.203Z,38.9
2017-02-24T17:27:37.117Z,38.9
2017-02-24T17:30:09.603Z,39
2017-02-24T17:32:42.100Z,39
2017-02-24T17:35:14.621Z,39.1
2017-02-24T17:37:47.531Z,39.1
2017-02-24T17:40:20.062Z,39.1
2017-02-24T17:42:52.537Z,39.2
2017-02-24T17:45:25.893Z,39.2
2017-02-24T17:47:58.807Z,39.2
2017-02-24T17:50:31.736Z,39.2
2017-02-24T17:53:04.669Z,39.2
2017-02-24T17:55:37.163Z,39.2
2017-02-24T17:58:09.662Z,39.2
2017-02-24T18:00:42.158Z,39.3
2017-02-24T18:03:14.672Z,39.2
2017-02-24T18:05:47.166Z,39.3
2017-02-24T18:08:19.886Z,39.3
2017-02-24T18:10:52.363Z,39.2
2017-02-24T18:13:25.289Z,39.4
2017-02-24T18:15:57.768Z,39.4
2017-02-24T18:18:30.262Z,39.5
2017-02-24T18:21:02.766Z,39.5
2017-02-24T18:23:35.676Z,39.6
2017-02-24T18:26:08.597Z,39.8
2017-02-24T18:28:41.116Z,39.7
2017-02-24T18:31:13.613Z,39.8
2017-02-24T18:33:46.101Z,39.6
2017-02-24T18:36:19.042Z,39.8
2017-02-24T18:38:52.033Z,39.8
2017-02-24T18:41:24.532Z,39.9
2017-02-24T18:43:57.048Z,39.9
2017-02-24T18:46:29.523Z,39.9
2017-02-24T18:49:01.990Z,40
2017-02-24T18:51:34.485Z,40
2017-02-24T18:54:06.988Z,40.1
2017-02-24T18:56:39.484Z,40.1
2017-02-24T18:59:11.974Z,40.1
2017-02-24T19:01:44.912Z,40.2
2017-02-24T19:04:17.397Z,40.2
2017-02-24T19:06:50.322Z,40.4
2017-02-24T19:09:22.807Z,40.4
2017-02-24T19:11:55.298Z,40.4
2017-02-24T19:14:27.797Z,40.4
2017-02-24T19:17:00.272Z,40.4
2017-02-24T19:19:33.188Z,40.4
2017-02-24T19:22:05.694Z,40.5
2017-02-24T19:24:38.372Z,40.5
2017-02-24T19:27:10.851Z,40.5
2017-02-24T19:29:43.347Z,40.4
2017-02-24T19:32:16.261Z,40.5
2017-02-24T19:34:48.748Z,40.4
2017-02-24T19:37:21.221Z,40.5
2017-02-24T19:39:53.714Z,40.4
2017-02-24T19:42:26.202Z,40.4
2017-02-24T19:44:58.918Z,40.7
2017-02-24T19:47:31.455Z,40.7
2017-02-24T19:50:03.944Z,40.6
2017-02-24T19:52:36.905Z,40.5
2017-02-24T19:55:09.820Z,40.5
2017-02-24T19:57:42.306Z,40.5
2017-02-24T20:00:15.223Z,40.5
2017-02-24T20:02:48.151Z,40.5
2017-02-24T20:05:20.653Z,40.6
2017-02-24T20:07:53.168Z,40.6
2017-02-24T20:10:25.681Z,40.6
2017-02-24T20:12:58.194Z,40.6
2017-02-24T20:15:30.700Z,40.6
2017-02-24T20:18:03.196Z,40.6
2017-02-24T20:20:36.111Z,40.7
2017-02-24T20:23:09.249Z,40.7
2017-02-24T20:25:42.171Z,40.9
2017-02-24T20:28:14.657Z,40.9
2017-02-24T20:30:47.136Z,40.9
2017-02-24T20:33:19.621Z,40.9
2017-02-24T20:35:52.127Z,40.9
2017-02-24T20:38:24.605Z,40.9
2017-02-24T20:40:57.115Z,40.9
2017-02-24T20:43:29.620Z,40.9
2017-02-24T20:46:02.551Z,40.9
2017-02-24T20:48:35.066Z,40.9
2017-02-24T20:51:07.957Z,40.9
2017-02-24T20:53:40.450Z,40.9
2017-02-24T20:56:12.966Z,40.9
2017-02-24T20:58:45.459Z,40.9
2017-02-24T21:01:17.937Z,40.9
2017-02-24T21:03:50.431Z,40.9
2017-02-24T21:06:22.915Z,40.9
2017-02-24T21:08:55.429Z,40.9
2017-02-24T21:11:27.913Z,40.9
2017-02-24T21:14:00.433Z,40.9
2017-02-24T21:16:33.351Z,40.9
2017-02-24T21:19:05.863Z,40.9
2017-02-24T21:21:38.344Z,40.9
2017-02-24T21:24:11.256Z,40.9
2017-02-24T21:26:43.775Z,41.1
2017-02-24T21:29:16.268Z,41.1
2017-02-24T21:31:48.765Z,41.1
2017-02-24T21:34:21.243Z,41.1
2017-02-24T21:36:53.739Z,41.1
2017-02-24T21:39:26.223Z,41.2
2017-02-24T21:41:59.129Z,41.1
2017-02-24T21:44:32.035Z,41.2
2017-02-24T21:47:05.388Z,41.2
2017-02-24T21:49:37.871Z,41.2
2017-02-24T21:52:10.357Z,41.2
2017-02-24T21:54:42.847Z,41.2
2017-02-24T21:57:15.367Z,41.2
2017-02-24T21:59:47.846Z,41.3
2017-02-24T22:02:20.324Z,41.3
2017-02-24T22:04:52.826Z,41.3
2017-02-24T22:07:26.333Z,41.3
2017-02-24T22:09:59.245Z,41.2
2017-02-24T22:12:32.155Z,41.3
2017-02-24T22:15:04.636Z,41.3
2017-02-24T22:17:37.112Z,41.3
2017-02-24T22:20:09.603Z,41.3
2017-02-24T22:22:42.098Z,41.3
2017-02-24T22:25:14.574Z,41.3
2017-02-24T22:27:47.904Z,41.2
2017-02-24T22:30:20.420Z,41.2
2017-02-24T22:32:52.889Z,41.3
2017-02-24T22:35:25.376Z,41.2
2017-02-24T22:37:58.705Z,41.2
2017-02-24T22:40:31.200Z,41.3
2017-02-24T22:43:03.677Z,41.2
2017-02-24T22:45:36.198Z,41.2
2017-02-24T22:48:08.693Z,41.2
2017-02-24T22:50:41.187Z,41.2
2017-02-24T22:53:13.684Z,41.2
2017-02-24T22:55:46.206Z,41.3
2017-02-24T22:58:19.141Z,41.2
2017-02-24T23:00:52.463Z,41.3
2017-02-24T23:03:25.385Z,41.3
2017-02-24T23:05:58.290Z,41.3
2017-02-24T23:08:30.798Z,41.3
2017-02-24T23:11:03.287Z,41.3
2017-02-24T23:13:36.192Z,41.3
2017-02-24T23:16:08.697Z,41.3
2017-02-24T23:18:41.192Z,41.3
2017-02-24T23:21:13.693Z,41.4
2017-02-24T23:23:46.216Z,41.3
2017-02-24T23:26:18.713Z,41.3
2017-02-24T23:28:51.213Z,41.3
2017-02-24T23:31:23.713Z,41.3
2017-02-24T23:33:56.197Z,41.3
2017-02-24T23:36:29.103Z,41.4
2017-02-24T23:39:01.618Z,41.3
2017-02-24T23:41:34.523Z,41.3
2017-02-24T23:44:07.028Z,41.3
2017-02-24T23:46:39.524Z,41.3
2017-02-24T23:49:12.006Z,41.3
2017-02-24T23:51:44.520Z,41.3
2017-02-24T23:54:17.854Z,41.3
2017-02-24T23:56:50.763Z,41.3
2017-02-24T23:59:23.258Z,41.3
